Time;durP1;ratioP1;P1;durP2;ratioP2;P2;SDS_P1;SDS_P2;PMS_P1;PMS_P2;Temp;Humidity;BMP_temperature;BMP_pressure;BME280_temperature;BME280_humidity;BME280_pressure;Samples;Min_cycle;Max_cycle;Signal;HPM_P1;HPM_P2
2023/04/29 00:01:15;;;;;;;;;;;;;;;;;;4955905;28;19944;-64
2023/04/29 00:03:41;;;;;;;;;;;;;;;;;;4969894;28;19976;-63
2023/04/29 00:06:06;;;;;;;;;;;;;;;;;;4990074;28;19921;-64
2023/04/29 00:08:31;;;;;;;;;;;;;;;;;;4973173;28;19924;-64
2023/04/29 00:10:57;;;;;;;;;;;;;;;;;;4955806;28;19932;-65
2023/04/29 00:13:22;;;;;;;;;;;;;;;;;;4971159;28;19996;-64
2023/04/29 00:15:47;;;;;;;;;;;;;;;;;;4973916;28;20347;-64
2023/04/29 00:18:13;;;;;;;;;;;;;;;;;;4970735;28;19918;-64
2023/04/29 00:20:38;;;;;;;;;;;;;;;;;;4972869;28;19933;-64
2023/04/29 00:23:03;;;;;;;;;;;;;;;;;;4955311;28;19921;-65
2023/04/29 00:25:29;;;;;;;;;;;;;;;;;;4988836;28;20480;-65
2023/04/29 00:27:55;;;;;;;;;;;;;;;;;;4969243;28;20453;-64
2023/04/29 00:30:20;;;;;;;;;;;;;;;;;;4972542;28;19948;-64
2023/04/29 00:32:46;;;;;;;;;;;;;;;;;;4971236;28;19922;-63
2023/04/29 00:35:15;;;;;;;;;;;;;;;;;;4970305;28;19917;-63
2023/04/29 00:37:40;;;;;;;;;;;;;;;;;;4973052;28;20473;-64
2023/04/29 00:40:13;;;;;;;;;;;;;;;;;;4970212;28;19929;-64
2023/04/29 00:42:39;;;;;;;;;;;;;;;;;;4971388;28;20018;-63
2023/04/29 00:45:04;;;;;;;;;;;;;;;;;;4970181;28;20028;-63
2023/04/29 00:47:30;;;;;;;;;;;;;;;;;;4984057;28;20003;-63
2023/04/29 00:49:57;;;;;;;;;;;;;;;;;;4956173;28;19944;-64
2023/04/29 00:52:26;;;;;;;;;;;;;;;;;;4968514;28;19929;-65
2023/04/29 00:54:51;;;;;;;;;;;;;;;;;;4971239;28;19937;-64
2023/04/29 00:57:16;;;;;;;;;;;;;;;;;;4972620;28;20558;-64
2023/04/29 00:59:41;;;;;;;;;;;;;;;;;;4971215;28;20028;-63
2023/04/29 01:02:10;;;;;;;;;;;;;;;;;;4989308;28;20377;-64
2023/04/29 01:04:35;;;;;;;;;;;;;;;;;;4985348;28;19990;-63
2023/04/29 01:07:03;;;;;;;;;;;;;;;;;;4970408;28;19995;-64
2023/04/29 01:09:28;;;;;;;;;;;;;;;;;;4988616;28;21365;-63
2023/04/29 01:11:53;;;;;;;;;;;;;;;;;;4971970;28;19921;-66
2023/04/29 01:14:19;;;;;;;;;;;;;;;;;;4954283;28;20423;-64
2023/04/29 01:16:44;;;;;;;;;;;;;;;;;;4973847;28;19922;-64
2023/04/29 01:19:11;;;;;;;;;;;;;;;;;;4957353;28;20244;-63
2023/04/29 01:21:39;;;;;;;;;;;;;;;;;;4960972;28;20001;-64
2023/04/29 01:24:08;;;;;;;;;;;;;;;;;;4974093;28;19928;-64
2023/04/29 01:26:34;;;;;;;;;;;;;;;;;;4990443;28;19921;-65
2023/04/29 01:28:59;;;;;;;;;;;;;;;;;;4973250;28;20417;-65
2023/04/29 01:31:25;;;;;;;;;;;;;;;;;;4975422;28;20938;-65
2023/04/29 01:33:50;;;;;;;;;;;;;;;;;;4958926;28;20436;-64
2023/04/29 01:36:16;;;;;;;;;;;;;;;;;;4974162;28;19921;-63
2023/04/29 01:38:41;;;;;;;;;;;;;;;;;;4974757;28;19928;-63
2023/04/29 01:41:09;;;;;;;;;;;;;;;;;;4976308;28;20614;-64
2023/04/29 01:43:34;;;;;;;;;;;;;;;;;;4991596;28;19926;-64
2023/04/29 01:46:00;;;;;;;;;;;;;;;;;;4972814;28;20651;-64
2023/04/29 01:48:28;;;;;;;;;;;;;;;;;;4992781;28;20051;-64
2023/04/29 01:50:56;;;;;;;;;;;;;;;;;;4992844;28;20036;-64
2023/04/29 01:53:24;;;;;;;;;;;;;;;;;;4970788;28;20117;-65
2023/04/29 01:55:49;;;;;;;;;;;;;;;;;;4969860;28;19925;-64
2023/04/29 01:58:17;;;;;;;;;;;;;;;;;;4972399;28;19929;-64
2023/04/29 02:00:42;;;;;;;;;;;;;;;;;;4973393;28;19978;-64
2023/04/29 02:03:07;;;;;;;;;;;;;;;;;;4970368;28;20664;-63
2023/04/29 02:05:33;;;;;;;;;;;;;;;;;;4971796;28;19917;-65
2023/04/29 02:07:58;;;;;;;;;;;;;;;;;;4970981;28;20337;-64
2023/04/29 02:10:23;;;;;;;;;;;;;;;;;;4972365;28;20072;-63
2023/04/29 02:12:51;;;;;;;;;;;;;;;;;;4969207;28;19932;-64
2023/04/29 02:15:16;;;;;;;;;;;;;;;;;;4959020;28;19922;-65
2023/04/29 02:17:42;;;;;;;;;;;;;;;;;;4972349;28;19933;-64
2023/04/29 02:20:07;;;;;;;;;;;;;;;;;;4970912;28;19961;-64
2023/04/29 02:22:32;;;;;;;;;;;;;;;;;;4971439;28;19945;-64
2023/04/29 02:25:00;;;;;;;;;;;;;;;;;;4982240;28;19928;-64
2023/04/29 02:27:31;;;;;;;;;;;;;;;;;;4968808;28;19929;-65
2023/04/29 02:29:56;;;;;;;;;;;;;;;;;;4951870;28;20416;-65
2023/04/29 02:32:22;;;;;;;;;;;;;;;;;;4985369;28;20018;-65
2023/04/29 02:34:48;;;;;;;;;;;;;;;;;;4972793;28;20923;-64
2023/04/29 02:37:14;;;;;;;;;;;;;;;;;;4956432;28;19929;-64
2023/04/29 02:39:40;;;;;;;;;;;;;;;;;;4953615;28;19925;-64
2023/04/29 02:42:05;;;;;;;;;;;;;;;;;;4972838;28;20640;-64
2023/04/29 02:44:30;;;;;;;;;;;;;;;;;;4970080;28;19953;-64
2023/04/29 02:46:56;;;;;;;;;;;;;;;;;;4967875;28;19997;-64
2023/04/29 02:49:22;;;;;;;;;;;;;;;;;;4971124;28;19925;-65
2023/04/29 02:51:50;;;;;;;;;;;;;;;;;;4973748;28;20056;-64
2023/04/29 02:54:16;;;;;;;;;;;;;;;;;;4972468;28;20646;-64
2023/04/29 02:56:43;;;;;;;;;;;;;;;;;;4970018;28;19975;-64
2023/04/29 02:59:09;;;;;;;;;;;;;;;;;;4991005;28;19992;-64
2023/04/29 03:01:34;;;;;;;;;;;;;;;;;;4974132;28;19924;-64
2023/04/29 03:04:01;;;;;;;;;;;;;;;;;;4992277;28;20446;-63
2023/04/29 03:06:27;;;;;;;;;;;;;;;;;;4960134;28;19983;-65
2023/04/29 03:08:56;;;;;;;;;;;;;;;;;;4991576;28;20049;-64
2023/04/29 03:11:23;;;;;;;;;;;;;;;;;;4958590;28;19922;-65
2023/04/29 03:13:48;;;;;;;;;;;;;;;;;;4974045;28;19965;-64
2023/04/29 03:16:15;;;;;;;;;;;;;;;;;;4974044;28;20059;-65
2023/04/29 03:18:40;;;;;;;;;;;;;;;;;;4972919;28;19921;-65
2023/04/29 03:21:09;;;;;;;;;;;;;;;;;;4991799;28;20331;-64
2023/04/29 03:23:34;;;;;;;;;;;;;;;;;;4969068;28;19921;-64
2023/04/29 03:26:00;;;;;;;;;;;;;;;;;;4957606;28;20060;-65
2023/04/29 03:28:25;;;;;;;;;;;;;;;;;;4989819;28;20795;-65
2023/04/29 03:30:50;;;;;;;;;;;;;;;;;;4972649;28;20020;-65
2023/04/29 03:33:16;;;;;;;;;;;;;;;;;;4971769;28;19921;-65
2023/04/29 03:35:41;;;;;;;;;;;;;;;;;;4974517;28;19921;-65
2023/04/29 03:38:06;;;;;;;;;;;;;;;;;;4969918;28;19995;-64
2023/04/29 03:40:32;;;;;;;;;;;;;;;;;;4973368;28;19957;-64
2023/04/29 03:42:57;;;;;;;;;;;;;;;;;;4990164;28;19922;-64
2023/04/29 03:45:22;;;;;;;;;;;;;;;;;;4975792;28;19972;-64
2023/04/29 03:47:52;;;;;;;;;;;;;;;;;;4972718;28;19943;-64
2023/04/29 03:50:17;;;;;;;;;;;;;;;;;;4973754;28;20467;-65
2023/04/29 03:52:47;;;;;;;;;;;;;;;;;;4970032;28;19933;-66
2023/04/29 03:55:15;;;;;;;;;;;;;;;;;;4956549;28;19921;-66
2023/04/29 03:57:40;;;;;;;;;;;;;;;;;;4953871;28;20385;-66
2023/04/29 04:00:06;;;;;;;;;;;;;;;;;;4954066;28;19928;-66
2023/04/29 04:02:34;;;;;;;;;;;;;;;;;;4971563;28;20376;-65
2023/04/29 04:05:02;;;;;;;;;;;;;;;;;;4953367;28;19929;-65
2023/04/29 04:07:28;;;;;;;;;;;;;;;;;;4954878;28;19917;-64
2023/04/29 04:09:53;;;;;;;;;;;;;;;;;;4968748;28;20306;-64
2023/04/29 04:12:18;;;;;;;;;;;;;;;;;;4972439;28;20276;-66
2023/04/29 04:14:44;;;;;;;;;;;;;;;;;;4953463;28;19953;-65
2023/04/29 04:17:11;;;;;;;;;;;;;;;;;;4970056;28;19924;-64
2023/04/29 04:19:37;;;;;;;;;;;;;;;;;;4967348;28;19922;-65
2023/04/29 04:22:06;;;;;;;;;;;;;;;;;;4971073;28;19917;-65
2023/04/29 04:24:34;;;;;;;;;;;;;;;;;;4968433;28;19922;-65
2023/04/29 04:27:00;;;;;;;;;;;;;;;;;;4952911;28;19924;-64
2023/04/29 04:29:28;;;;;;;;;;;;;;;;;;4969697;28;20472;-65
2023/04/29 04:31:56;;;;;;;;;;;;;;;;;;4953868;28;19939;-64
2023/04/29 04:34:25;;;;;;;;;;;;;;;;;;4968927;28;19929;-65
2023/04/29 04:36:52;;;;;;;;;;;;;;;;;;4970716;28;19917;-65
2023/04/29 04:39:20;;;;;;;;;;;;;;;;;;4970685;28;19929;-65
2023/04/29 04:41:48;;;;;;;;;;;;;;;;;;4968973;28;20068;-65
2023/04/29 04:44:13;;;;;;;;;;;;;;;;;;4972968;28;19922;-65
2023/04/29 04:46:42;;;;;;;;;;;;;;;;;;4968712;28;19918;-63
2023/04/29 04:49:12;;;;;;;;;;;;;;;;;;4955876;28;19933;-66
2023/04/29 04:51:37;;;;;;;;;;;;;;;;;;4972087;28;21859;-65
2023/04/29 04:54:03;;;;;;;;;;;;;;;;;;4975569;28;19936;-66
2023/04/29 04:56:30;;;;;;;;;;;;;;;;;;4973118;28;20985;-66
2023/04/29 04:58:56;;;;;;;;;;;;;;;;;;4958105;28;19921;-65
2023/04/29 05:01:21;;;;;;;;;;;;;;;;;;4960668;28;19917;-65
2023/04/29 05:03:49;;;;;;;;;;;;;;;;;;4973306;28;20428;-66
2023/04/29 05:06:14;;;;;;;;;;;;;;;;;;4976435;28;19921;-66
2023/04/29 05:08:42;;;;;;;;;;;;;;;;;;4975187;28;19972;-66
2023/04/29 05:11:12;;;;;;;;;;;;;;;;;;4993923;28;20327;-66
2023/04/29 05:13:40;;;;;;;;;;;;;;;;;;4994592;28;20483;-65
2023/04/29 05:16:05;;;;;;;;;;;;;;;;;;4976900;28;20382;-66
2023/04/29 05:18:33;;;;;;;;;;;;;;;;;;4974604;28;20344;-66
2023/04/29 05:20:59;;;;;;;;;;;;;;;;;;4975909;28;20625;-66
2023/04/29 05:23:24;;;;;;;;;;;;;;;;;;4959265;28;19960;-66
2023/04/29 05:25:50;;;;;;;;;;;;;;;;;;4959275;28;19924;-65
2023/04/29 05:28:31;;;;;;;;;;;;;;;;;;4992935;28;19921;-66
2023/04/29 05:30:58;;;;;;;;;;;;;;;;;;4968291;28;19964;-66
2023/04/29 05:33:24;;;;;;;;;;;;;;;;;;4960019;28;19950;-66
2023/04/29 05:35:49;;;;;;;;;;;;;;;;;;4976734;28;19925;-67
2023/04/29 05:38:14;;;;;;;;;;;;;;;;;;4975155;28;19925;-66
2023/04/29 05:40:42;;;;;;;;;;;;;;;;;;4975219;28;19928;-66
2023/04/29 05:43:08;;;;;;;;;;;;;;;;;;4962248;28;19929;-66
2023/04/29 05:45:35;;;;;;;;;;;;;;;;;;4994596;28;20570;-67
2023/04/29 05:48:04;;;;;;;;;;;;;;;;;;4962715;28;19918;-67
2023/04/29 05:50:29;;;;;;;;;;;;;;;;;;4959599;28;19923;-67
2023/04/29 05:52:57;;;;;;;;;;;;;;;;;;4954733;28;19937;-67
2023/04/29 05:55:22;;;;;;;;;;;;;;;;;;4958981;28;19925;-67
2023/04/29 05:57:54;;;;;;;;;;;;;;;;;;4973683;28;19984;-66
2023/04/29 06:01:02;;;;;;;;;;;;;;;;;;4971544;28;20649;-68
2023/04/29 06:03:22;;;;;;;;;;;;;;;;;;4967458;28;20043;-70
2023/04/29 06:05:47;;;;;;;;;;;;;;;;;;4960171;28;19922;-68
2023/04/29 06:08:15;;;;;;;;;;;;;;;;;;4958316;28;19917;-67
2023/04/29 06:10:43;;;;;;;;;;;;;;;;;;4972219;28;19972;-66
2023/04/29 06:13:11;;;;;;;;;;;;;;;;;;4957046;28;19925;-66
2023/04/29 06:15:36;;;;;;;;;;;;;;;;;;4973661;28;20017;-67
2023/04/29 06:18:01;;;;;;;;;;;;;;;;;;4973842;28;19922;-66
2023/04/29 06:20:30;;;;;;;;;;;;;;;;;;4974395;28;20387;-68
2023/04/29 06:22:56;;;;;;;;;;;;;;;;;;4972203;28;20484;-67
2023/04/29 06:25:21;;;;;;;;;;;;;;;;;;4958427;28;19918;-68
2023/04/29 06:27:48;;;;;;;;;;;;;;;;;;4987854;28;20061;-67
2023/04/29 06:30:13;;;;;;;;;;;;;;;;;;4955671;28;19925;-68
2023/04/29 06:32:38;;;;;;;;;;;;;;;;;;4969302;28;19922;-67
2023/04/29 06:35:04;;;;;;;;;;;;;;;;;;4954637;28;19940;-67
2023/04/29 06:37:29;;;;;;;;;;;;;;;;;;4973814;28;20285;-67
2023/04/29 06:39:55;;;;;;;;;;;;;;;;;;4971322;28;20428;-67
2023/04/29 06:42:23;;;;;;;;;;;;;;;;;;4974013;28;19960;-66
2023/04/29 06:44:51;;;;;;;;;;;;;;;;;;4973525;28;19921;-67
2023/04/29 06:47:16;;;;;;;;;;;;;;;;;;4974766;28;19926;-66
2023/04/29 06:49:44;;;;;;;;;;;;;;;;;;4972070;28;20043;-67
2023/04/29 06:52:09;;;;;;;;;;;;;;;;;;4974080;28;20536;-66
2023/04/29 06:54:38;;;;;;;;;;;;;;;;;;4988318;28;19928;-67
2023/04/29 06:57:03;;;;;;;;;;;;;;;;;;4970865;28;19922;-66
2023/04/29 06:59:28;;;;;;;;;;;;;;;;;;4974650;28;20550;-67
2023/04/29 07:01:56;;;;;;;;;;;;;;;;;;4993104;28;19956;-66
2023/04/29 07:04:27;;;;;;;;;;;;;;;;;;4974710;28;19927;-67
2023/04/29 07:06:53;;;;;;;;;;;;;;;;;;4969775;28;19921;-66
2023/04/29 07:09:22;;;;;;;;;;;;;;;;;;4975056;28;19960;-68
2023/04/29 07:11:47;;;;;;;;;;;;;;;;;;4989955;28;20495;-67
2023/04/29 07:14:13;;;;;;;;;;;;;;;;;;4973856;28;19922;-66
2023/04/29 07:16:38;;;;;;;;;;;;;;;;;;4964099;28;20495;-66
2023/04/29 07:19:08;;;;;;;;;;;;;;;;;;4973432;28;19917;-66
2023/04/29 07:21:36;;;;;;;;;;;;;;;;;;4969782;28;20025;-67
2023/04/29 07:24:04;;;;;;;;;;;;;;;;;;4970591;28;19979;-67
2023/04/29 07:26:30;;;;;;;;;;;;;;;;;;4971345;28;20403;-67
2023/04/29 07:29:00;;;;;;;;;;;;;;;;;;4973783;28;19925;-67
2023/04/29 07:31:25;;;;;;;;;;;;;;;;;;4965470;28;19921;-67
2023/04/29 07:33:50;;;;;;;;;;;;;;;;;;4974059;28;19924;-66
2023/04/29 07:36:21;;;;;;;;;;;;;;;;;;4991300;28;19922;-65
2023/04/29 07:38:49;;;;;;;;;;;;;;;;;;4954823;28;20023;-66
2023/04/29 07:41:14;;;;;;;;;;;;;;;;;;4974767;28;19918;-64
2023/04/29 07:43:39;;;;;;;;;;;;;;;;;;4972639;28;19917;-65
2023/04/29 07:46:07;;;;;;;;;;;;;;;;;;4955851;28;19921;-66
2023/04/29 07:48:32;;;;;;;;;;;;;;;;;;4990054;28;19987;-66
2023/04/29 07:51:00;;;;;;;;;;;;;;;;;;4957280;28;19984;-66
2023/04/29 07:53:28;;;;;;;;;;;;;;;;;;4977468;28;20043;-65
2023/04/29 07:55:55;;;;;;;;;;;;;;;;;;4973124;28;20420;-65
2023/04/29 07:58:20;;;;;;;;;;;;;;;;;;4972800;28;19929;-65
2023/04/29 08:00:46;;;;;;;;;;;;;;;;;;4960514;28;19917;-66
2023/04/29 08:03:14;;;;;;;;;;;;;;;;;;4958766;28;20004;-66
2023/04/29 08:05:39;;;;;;;;;;;;;;;;;;4968759;28;19921;-67
2023/04/29 08:08:05;;;;;;;;;;;;;;;;;;4974324;28;19923;-67
2023/04/29 08:10:30;;;;;;;;;;;;;;;;;;4989194;28;19925;-67
2023/04/29 08:12:59;;;;;;;;;;;;;;;;;;4973642;28;20113;-65
2023/04/29 08:15:24;;;;;;;;;;;;;;;;;;4969547;28;20619;-66
2023/04/29 08:17:53;;;;;;;;;;;;;;;;;;4958778;28;20303;-65
2023/04/29 08:20:18;;;;;;;;;;;;;;;;;;4958082;28;19922;-66
2023/04/29 08:22:44;;;;;;;;;;;;;;;;;;4973914;28;20302;-65
2023/04/29 08:25:15;;;;;;;;;;;;;;;;;;4957196;28;20000;-66
2023/04/29 08:27:42;;;;;;;;;;;;;;;;;;4973526;28;19933;-66
2023/04/29 08:30:07;;;;;;;;;;;;;;;;;;4971896;28;19925;-66
2023/04/29 08:32:34;;;;;;;;;;;;;;;;;;4969190;28;20164;-65
2023/04/29 08:34:59;;;;;;;;;;;;;;;;;;4952779;28;19945;-64
2023/04/29 08:37:29;;;;;;;;;;;;;;;;;;4970921;28;20513;-64
2023/04/29 08:39:55;;;;;;;;;;;;;;;;;;4975047;28;19918;-64
2023/04/29 08:42:20;;;;;;;;;;;;;;;;;;4956071;28;20438;-66
2023/04/29 08:44:46;;;;;;;;;;;;;;;;;;4977374;28;19924;-64
2023/04/29 08:47:13;;;;;;;;;;;;;;;;;;4990943;28;20324;-65
2023/04/29 08:49:44;;;;;;;;;;;;;;;;;;4957444;28;20875;-65
2023/04/29 08:52:11;;;;;;;;;;;;;;;;;;4974637;28;20757;-66
2023/04/29 08:54:40;;;;;;;;;;;;;;;;;;4970005;28;20419;-64
2023/04/29 08:57:07;;;;;;;;;;;;;;;;;;4962711;28;19928;-64
2023/04/29 08:59:36;;;;;;;;;;;;;;;;;;4971080;28;20296;-65
2023/04/29 09:02:01;;;;;;;;;;;;;;;;;;4976618;28;22078;-66
2023/04/29 09:04:26;;;;;;;;;;;;;;;;;;4953296;28;19928;-64
2023/04/29 09:06:52;;;;;;;;;;;;;;;;;;4990850;28;20007;-64
2023/04/29 09:09:19;;;;;;;;;;;;;;;;;;4957578;28;20076;-63
2023/04/29 09:11:48;;;;;;;;;;;;;;;;;;4990619;28;19932;-65
2023/04/29 09:14:13;;;;;;;;;;;;;;;;;;4972216;28;19917;-65
2023/04/29 09:16:38;;;;;;;;;;;;;;;;;;4973752;28;20016;-63
2023/04/29 09:19:03;;;;;;;;;;;;;;;;;;4971153;28;20005;-65
2023/04/29 09:21:31;;;;;;;;;;;;;;;;;;4972913;28;19917;-64
2023/04/29 09:23:56;;;;;;;;;;;;;;;;;;4971732;28;19944;-64
2023/04/29 09:26:22;;;;;;;;;;;;;;;;;;4954990;28;20331;-64
2023/04/29 09:28:48;;;;;;;;;;;;;;;;;;4972636;28;19933;-63
2023/04/29 09:31:19;;;;;;;;;;;;;;;;;;4989329;28;19921;-64
2023/04/29 09:33:44;;;;;;;;;;;;;;;;;;4986878;28;19917;-64
2023/04/29 09:36:14;;;;;;;;;;;;;;;;;;4989456;28;19929;-65
2023/04/29 09:38:40;;;;;;;;;;;;;;;;;;4989363;28;20292;-64
2023/04/29 09:41:05;;;;;;;;;;;;;;;;;;4992983;28;19953;-64
2023/04/29 09:43:34;;;;;;;;;;;;;;;;;;4976197;28;19922;-64
2023/04/29 09:46:08;;;;;;;;;;;;;;;;;;4975130;28;20382;-64
2023/04/29 09:48:41;;;;;;;;;;;;;;;;;;4957072;28;19921;-63
2023/04/29 09:51:07;;;;;;;;;;;;;;;;;;4976616;28;19921;-64
2023/04/29 09:53:37;;;;;;;;;;;;;;;;;;4994088;28;19936;-63
2023/04/29 09:56:02;;;;;;;;;;;;;;;;;;4994103;28;20164;-66
2023/04/29 09:58:28;;;;;;;;;;;;;;;;;;4992571;28;20447;-65
2023/04/29 10:00:56;;;;;;;;;;;;;;;;;;4975907;28;20343;-66
2023/04/29 10:03:21;;;;;;;;;;;;;;;;;;4975701;28;19917;-65
2023/04/29 10:05:47;;;;;;;;;;;;;;;;;;4975828;28;19964;-64
2023/04/29 10:08:12;;;;;;;;;;;;;;;;;;4956809;28;20459;-64
2023/04/29 10:10:37;;;;;;;;;;;;;;;;;;4968054;28;19957;-64
2023/04/29 10:13:05;;;;;;;;;;;;;;;;;;4958321;28;20012;-63
2023/04/29 10:15:31;;;;;;;;;;;;;;;;;;4993603;28;19917;-64
2023/04/29 10:17:58;;;;;;;;;;;;;;;;;;4992133;28;20059;-64
2023/04/29 10:20:26;;;;;;;;;;;;;;;;;;4976745;28;19984;-64
2023/04/29 10:23:03;;;;;;;;;;;;;;;;;;4958563;28;19951;-64
2023/04/29 10:25:36;;;;;;;;;;;;;;;;;;4957650;28;19921;-63
2023/04/29 10:28:05;;;;;;;;;;;;;;;;;;4954803;28;20003;-64
2023/04/29 10:30:30;;;;;;;;;;;;;;;;;;4993450;28;20024;-64
2023/04/29 10:32:58;;;;;;;;;;;;;;;;;;4973647;28;20480;-64
2023/04/29 10:35:26;;;;;;;;;;;;;;;;;;4989329;28;19960;-64
2023/04/29 10:37:56;;;;;;;;;;;;;;;;;;4992777;28;20188;-64
2023/04/29 10:40:22;;;;;;;;;;;;;;;;;;4974008;28;19948;-63
2023/04/29 10:42:49;;;;;;;;;;;;;;;;;;4960080;28;20410;-62
2023/04/29 10:45:15;;;;;;;;;;;;;;;;;;4972760;28;19921;-62
2023/04/29 10:47:40;;;;;;;;;;;;;;;;;;4976401;28;20236;-63
2023/04/29 10:50:05;;;;;;;;;;;;;;;;;;4973754;28;19922;-63
2023/04/29 10:52:30;;;;;;;;;;;;;;;;;;4975064;28;19995;-63
2023/04/29 10:54:56;;;;;;;;;;;;;;;;;;4972680;28;19987;-63
2023/04/29 10:57:21;;;;;;;;;;;;;;;;;;4992099;28;20409;-64
2023/04/29 10:59:47;;;;;;;;;;;;;;;;;;4991553;28;20277;-63
2023/04/29 11:02:14;;;;;;;;;;;;;;;;;;4958325;28;19965;-62
2023/04/29 11:04:39;;;;;;;;;;;;;;;;;;4972575;28;19932;-63
2023/04/29 11:07:04;;;;;;;;;;;;;;;;;;4971281;28;19933;-62
2023/04/29 11:09:32;;;;;;;;;;;;;;;;;;4974521;28;19955;-63
2023/04/29 11:11:59;;;;;;;;;;;;;;;;;;4973940;28;19922;-63
2023/04/29 11:14:25;;;;;;;;;;;;;;;;;;4977242;28;20048;-62
2023/04/29 11:16:53;;;;;;;;;;;;;;;;;;4992275;28;19921;-63
2023/04/29 11:19:21;;;;;;;;;;;;;;;;;;4990803;28;19928;-63
2023/04/29 11:21:49;;;;;;;;;;;;;;;;;;4975402;28;21313;-63
2023/04/29 11:24:15;;;;;;;;;;;;;;;;;;4956757;28;19941;-63
2023/04/29 11:26:43;;;;;;;;;;;;;;;;;;4974464;28;19923;-64
2023/04/29 11:29:11;;;;;;;;;;;;;;;;;;4991839;28;19925;-66
2023/04/29 11:31:42;;;;;;;;;;;;;;;;;;4972400;28;20363;-64
2023/04/29 11:34:07;;;;;;;;;;;;;;;;;;4954938;28;20849;-63
2023/04/29 11:36:32;;;;;;;;;;;;;;;;;;4970044;28;19979;-64
2023/04/29 11:38:58;;;;;;;;;;;;;;;;;;4957800;28;19924;-64
2023/04/29 11:41:23;;;;;;;;;;;;;;;;;;4973315;28;19922;-64
2023/04/29 11:43:50;;;;;;;;;;;;;;;;;;4991181;28;20404;-65
2023/04/29 11:46:16;;;;;;;;;;;;;;;;;;4992280;28;19924;-64
2023/04/29 11:48:44;;;;;;;;;;;;;;;;;;4973526;28;19925;-63
2023/04/29 11:51:18;;;;;;;;;;;;;;;;;;4975529;28;19976;-65
2023/04/29 11:53:44;;;;;;;;;;;;;;;;;;4972589;28;19930;-65
2023/04/29 11:56:09;;;;;;;;;;;;;;;;;;4975117;28;20059;-64
2023/04/29 11:58:35;;;;;;;;;;;;;;;;;;4972120;28;19967;-64
2023/04/29 12:01:05;;;;;;;;;;;;;;;;;;4992481;28;20455;-64
2023/04/29 12:03:35;;;;;;;;;;;;;;;;;;4974791;28;19921;-63
2023/04/29 12:06:02;;;;;;;;;;;;;;;;;;4970722;28;19968;-64
2023/04/29 12:08:32;;;;;;;;;;;;;;;;;;4990128;28;20555;-62
2023/04/29 12:11:00;;;;;;;;;;;;;;;;;;4973301;28;19969;-64
2023/04/29 12:13:26;;;;;;;;;;;;;;;;;;4957020;28;20039;-64
2023/04/29 12:15:51;;;;;;;;;;;;;;;;;;4972499;28;21193;-63
2023/04/29 12:18:19;;;;;;;;;;;;;;;;;;4991172;28;20805;-65
2023/04/29 12:20:45;;;;;;;;;;;;;;;;;;4972597;28;19921;-65
2023/04/29 12:23:14;;;;;;;;;;;;;;;;;;4973563;28;20276;-65
2023/04/29 12:25:42;;;;;;;;;;;;;;;;;;4992155;28;19917;-65
2023/04/29 12:28:13;;;;;;;;;;;;;;;;;;4973582;28;21680;-65
2023/04/29 12:30:38;;;;;;;;;;;;;;;;;;4974147;28;19922;-64
2023/04/29 12:33:06;;;;;;;;;;;;;;;;;;4969029;28;20308;-66
2023/04/29 12:35:31;;;;;;;;;;;;;;;;;;4955535;28;19921;-65
2023/04/29 12:37:56;;;;;;;;;;;;;;;;;;4968949;28;20278;-63
2023/04/29 12:40:23;;;;;;;;;;;;;;;;;;4953839;28;20017;-64
2023/04/29 12:42:53;;;;;;;;;;;;;;;;;;4957383;28;20382;-65
2023/04/29 12:45:19;;;;;;;;;;;;;;;;;;4991039;28;19921;-65
2023/04/29 12:47:46;;;;;;;;;;;;;;;;;;4958277;28;20415;-65
2023/04/29 12:50:11;;;;;;;;;;;;;;;;;;4973441;28;19917;-64
2023/04/29 12:52:40;;;;;;;;;;;;;;;;;;4958219;28;19921;-68
2023/04/29 12:55:05;;;;;;;;;;;;;;;;;;4954417;28;19921;-64
2023/04/29 12:57:30;;;;;;;;;;;;;;;;;;4972531;28;20002;-66
2023/04/29 12:59:55;;;;;;;;;;;;;;;;;;4990559;28;19925;-66
2023/04/29 13:02:23;;;;;;;;;;;;;;;;;;4971739;28;19921;-66
2023/04/29 13:04:48;;;;;;;;;;;;;;;;;;4989392;28;20446;-66
2023/04/29 13:07:14;;;;;;;;;;;;;;;;;;4970024;28;19996;-65
2023/04/29 13:09:40;;;;;;;;;;;;;;;;;;4972159;28;19921;-64
2023/04/29 13:12:08;;;;;;;;;;;;;;;;;;4957112;28;19932;-65
2023/04/29 13:14:55;;;;;;;;;;;;;;;;;;4977843;28;20067;-66
2023/04/29 13:17:21;;;;;;;;;;;;;;;;;;4957943;28;19929;-65
2023/04/29 13:19:46;;;;;;;;;;;;;;;;;;4976977;28;19922;-66
2023/04/29 13:22:11;;;;;;;;;;;;;;;;;;4974969;28;19922;-64
2023/04/29 13:24:37;;;;;;;;;;;;;;;;;;4973876;28;20415;-65
2023/04/29 13:27:02;;;;;;;;;;;;;;;;;;4976621;28;20503;-66
2023/04/29 13:29:30;;;;;;;;;;;;;;;;;;4975634;28;19951;-66
2023/04/29 13:31:56;;;;;;;;;;;;;;;;;;4961125;28;20012;-65
2023/04/29 13:34:23;;;;;;;;;;;;;;;;;;4953075;28;19921;-66
2023/04/29 13:36:49;;;;;;;;;;;;;;;;;;4975109;28;19917;-66
2023/04/29 13:39:15;;;;;;;;;;;;;;;;;;4974412;28;19921;-66
2023/04/29 13:41:40;;;;;;;;;;;;;;;;;;4975655;28;19928;-66
2023/04/29 13:44:05;;;;;;;;;;;;;;;;;;4994243;28;20063;-67
2023/04/29 13:46:34;;;;;;;;;;;;;;;;;;4995234;28;19993;-67
2023/04/29 13:48:59;;;;;;;;;;;;;;;;;;4960356;28;19918;-66
2023/04/29 13:51:24;;;;;;;;;;;;;;;;;;4974229;28;20419;-66
2023/04/29 13:53:50;;;;;;;;;;;;;;;;;;4970630;28;20392;-66
2023/04/29 13:56:15;;;;;;;;;;;;;;;;;;4973782;28;19921;-66
2023/04/29 13:58:40;;;;;;;;;;;;;;;;;;4974081;28;19929;-65
2023/04/29 14:01:06;;;;;;;;;;;;;;;;;;4958971;28;20024;-65
2023/04/29 14:03:31;;;;;;;;;;;;;;;;;;4972168;28;20028;-65
2023/04/29 14:05:56;;;;;;;;;;;;;;;;;;4972201;28;20327;-65
2023/04/29 14:08:22;;;;;;;;;;;;;;;;;;4971335;28;19924;-66
2023/04/29 14:10:47;;;;;;;;;;;;;;;;;;4973085;28;20371;-65
2023/04/29 14:13:12;;;;;;;;;;;;;;;;;;4971102;28;19932;-65
2023/04/29 14:15:38;;;;;;;;;;;;;;;;;;4956330;28;20508;-64
2023/04/29 14:18:04;;;;;;;;;;;;;;;;;;4973561;28;20428;-64
2023/04/29 14:20:32;;;;;;;;;;;;;;;;;;4971392;28;20492;-66
2023/04/29 14:23:00;;;;;;;;;;;;;;;;;;4957032;28;20017;-66
2023/04/29 14:25:25;;;;;;;;;;;;;;;;;;4970959;28;19918;-65
2023/04/29 14:27:50;;;;;;;;;;;;;;;;;;4971223;28;19972;-66
2023/04/29 14:30:16;;;;;;;;;;;;;;;;;;4954760;28;19921;-65
2023/04/29 14:32:41;;;;;;;;;;;;;;;;;;4954604;28;19917;-65
2023/04/29 14:35:06;;;;;;;;;;;;;;;;;;4967618;28;20037;-66
2023/04/29 14:37:32;;;;;;;;;;;;;;;;;;4955916;28;19928;-67
2023/04/29 14:39:57;;;;;;;;;;;;;;;;;;4969577;28;19972;-66
2023/04/29 14:42:23;;;;;;;;;;;;;;;;;;4973196;28;20304;-67
2023/04/29 14:45:31;;;;;;;;;;;;;;;;;;4972418;28;19922;-66
2023/04/29 14:47:40;;;;;;;;;;;;;;;;;;4968591;28;19922;-65
2023/04/29 14:50:07;;;;;;;;;;;;;;;;;;4972506;28;19961;-66
2023/04/29 14:52:33;;;;;;;;;;;;;;;;;;4974147;28;19973;-65
2023/04/29 14:54:58;;;;;;;;;;;;;;;;;;4959298;28;20008;-66
2023/04/29 14:57:23;;;;;;;;;;;;;;;;;;4974771;28;19925;-66
2023/04/29 14:59:51;;;;;;;;;;;;;;;;;;4974137;28;19921;-66
2023/04/29 15:02:17;;;;;;;;;;;;;;;;;;4958155;28;20281;-66
2023/04/29 15:04:44;;;;;;;;;;;;;;;;;;4986914;28;19993;-67
2023/04/29 15:07:10;;;;;;;;;;;;;;;;;;4988220;28;20064;-66
2023/04/29 15:09:35;;;;;;;;;;;;;;;;;;4972905;28;19923;-66
2023/04/29 15:12:01;;;;;;;;;;;;;;;;;;4992039;28;19965;-66
2023/04/29 15:14:46;;;;;;;;;;;;;;;;;;4990727;28;20391;-65
2023/04/29 15:17:11;;;;;;;;;;;;;;;;;;4974343;28;19983;-68
2023/04/29 15:19:37;;;;;;;;;;;;;;;;;;4973961;28;19951;-67
2023/04/29 15:22:02;;;;;;;;;;;;;;;;;;4975149;28;19957;-66
2023/04/29 15:24:28;;;;;;;;;;;;;;;;;;4956671;28;19941;-67
2023/04/29 15:26:53;;;;;;;;;;;;;;;;;;4973518;28;20019;-66
2023/04/29 15:29:20;;;;;;;;;;;;;;;;;;4958677;28;20230;-66
2023/04/29 15:31:46;;;;;;;;;;;;;;;;;;4971677;28;20267;-65
2023/04/29 15:34:11;;;;;;;;;;;;;;;;;;4971153;28;19922;-64
2023/04/29 15:36:37;;;;;;;;;;;;;;;;;;4972017;28;19940;-64
2023/04/29 15:39:02;;;;;;;;;;;;;;;;;;4970427;28;20041;-65
2023/04/29 15:41:28;;;;;;;;;;;;;;;;;;4972620;28;19917;-64
2023/04/29 15:43:53;;;;;;;;;;;;;;;;;;4974044;28;20684;-65
2023/04/29 15:46:19;;;;;;;;;;;;;;;;;;4962811;28;20408;-65
2023/04/29 15:48:44;;;;;;;;;;;;;;;;;;4972309;28;19929;-64
2023/04/29 15:51:15;;;;;;;;;;;;;;;;;;4992308;28;20343;-65
2023/04/29 15:53:42;;;;;;;;;;;;;;;;;;4956917;28;19935;-65
2023/04/29 15:56:07;;;;;;;;;;;;;;;;;;4959573;28;19916;-65
2023/04/29 15:58:33;;;;;;;;;;;;;;;;;;4989686;28;20260;-65
2023/04/29 16:00:58;;;;;;;;;;;;;;;;;;4957720;28;19921;-64
2023/04/29 16:03:26;;;;;;;;;;;;;;;;;;4976202;28;19972;-63
2023/04/29 16:05:52;;;;;;;;;;;;;;;;;;4961719;28;19934;-65
2023/04/29 16:08:19;;;;;;;;;;;;;;;;;;4987975;28;20396;-66
2023/04/29 16:10:48;;;;;;;;;;;;;;;;;;4972983;28;19917;-65
2023/04/29 16:13:22;;;;;;;;;;;;;;;;;;4955508;28;20280;-65
2023/04/29 16:15:48;;;;;;;;;;;;;;;;;;4973611;28;20038;-65
2023/04/29 16:18:14;;;;;;;;;;;;;;;;;;4974763;28;20569;-65
2023/04/29 16:20:39;;;;;;;;;;;;;;;;;;4972020;28;19921;-65
2023/04/29 16:23:05;;;;;;;;;;;;;;;;;;4974087;28;19922;-64
2023/04/29 16:25:30;;;;;;;;;;;;;;;;;;4989930;28;19924;-64
2023/04/29 16:27:56;;;;;;;;;;;;;;;;;;4974543;28;19917;-65
2023/04/29 16:30:24;;;;;;;;;;;;;;;;;;4990267;28;19924;-65
2023/04/29 16:32:50;;;;;;;;;;;;;;;;;;4991332;28;20280;-66
2023/04/29 16:35:24;;;;;;;;;;;;;;;;;;4987177;28;19917;-65
2023/04/29 16:37:50;;;;;;;;;;;;;;;;;;4991042;28;19963;-64
2023/04/29 16:40:18;;;;;;;;;;;;;;;;;;4988133;28;20066;-65
2023/04/29 16:42:43;;;;;;;;;;;;;;;;;;4952681;28;19921;-64